sensor_id;sensor_type;location;lat;lon;timestamp;temperature;humidity
10986;DHT22;5546;48.714;8.738;2022-09-30T00:01:04;12.80;96.70
10986;DHT22;5546;48.714;8.738;2022-09-30T00:03:30;13.00;96.60
10986;DHT22;5546;48.714;8.738;2022-09-30T00:06:00;13.10;96.30
10986;DHT22;5546;48.714;8.738;2022-09-30T00:08:26;12.80;96.50
10986;DHT22;5546;48.714;8.738;2022-09-30T00:11:12;12.50;96.90
10986;DHT22;5546;48.714;8.738;2022-09-30T00:13:41;12.70;96.70
10986;DHT22;5546;48.714;8.738;2022-09-30T00:16:09;12.60;96.90
10986;DHT22;5546;48.714;8.738;2022-09-30T00:18:36;12.60;97.00
10986;DHT22;5546;48.714;8.738;2022-09-30T00:21:02;12.40;97.40
10986;DHT22;5546;48.714;8.738;2022-09-30T00:23:27;12.30;97.40
10986;DHT22;5546;48.714;8.738;2022-09-30T00:26:02;12.30;97.60
10986;DHT22;5546;48.714;8.738;2022-09-30T00:28:29;12.50;97.40
10986;DHT22;5546;48.714;8.738;2022-09-30T00:30:59;12.60;96.50
10986;DHT22;5546;48.714;8.738;2022-09-30T00:33:25;12.60;96.80
10986;DHT22;5546;48.714;8.738;2022-09-30T00:35:50;12.40;97.00
10986;DHT22;5546;48.714;8.738;2022-09-30T00:38:16;12.20;97.50
10986;DHT22;5546;48.714;8.738;2022-09-30T00:40:42;12.50;97.00
10986;DHT22;5546;48.714;8.738;2022-09-30T00:43:16;12.50;97.20
10986;DHT22;5546;48.714;8.738;2022-09-30T00:46:00;12.30;97.10
10986;DHT22;5546;48.714;8.738;2022-09-30T00:48:31;12.30;97.40
10986;DHT22;5546;48.714;8.738;2022-09-30T00:51:00;12.10;97.40
10986;DHT22;5546;48.714;8.738;2022-09-30T00:53:34;12.00;97.60
10986;DHT22;5546;48.714;8.738;2022-09-30T00:56:11;12.00;97.90
10986;DHT22;5546;48.714;8.738;2022-09-30T00:58:49;11.90;98.30
10986;DHT22;5546;48.714;8.738;2022-09-30T01:01:16;12.10;98.10
10986;DHT22;5546;48.714;8.738;2022-09-30T01:03:50;12.60;97.00
10986;DHT22;5546;48.714;8.738;2022-09-30T01:06:17;12.80;96.70
10986;DHT22;5546;48.714;8.738;2022-09-30T01:08:44;12.80;97.00
10986;DHT22;5546;48.714;8.738;2022-09-30T01:11:10;12.80;96.60
10986;DHT22;5546;48.714;8.738;2022-09-30T01:13:37;12.70;96.70
10986;DHT22;5546;48.714;8.738;2022-09-30T01:19:53;12.30;97.90
10986;DHT22;5546;48.714;8.738;2022-09-30T01:39:03;12.30;97.60
10986;DHT22;5546;48.714;8.738;2022-09-30T01:41:51;12.50;97.30
10986;DHT22;5546;48.714;8.738;2022-09-30T01:47:26;12.50;97.40
10986;DHT22;5546;48.714;8.738;2022-09-30T01:50:23;12.60;97.40
10986;DHT22;5546;48.714;8.738;2022-09-30T01:53:15;12.90;96.90
10986;DHT22;5546;48.714;8.738;2022-09-30T01:56:15;12.90;96.40
10986;DHT22;5546;48.714;8.738;2022-09-30T01:59:07;12.90;96.70
10986;DHT22;5546;48.714;8.738;2022-09-30T02:01:59;12.70;97.10
10986;DHT22;5546;48.714;8.738;2022-09-30T02:04:31;12.50;97.30
10986;DHT22;5546;48.714;8.738;2022-09-30T02:07:02;12.60;97.00
10986;DHT22;5546;48.714;8.738;2022-09-30T02:09:46;12.60;97.30
10986;DHT22;5546;48.714;8.738;2022-09-30T02:12:17;12.10;97.90
10986;DHT22;5546;48.714;8.738;2022-09-30T02:14:48;12.20;97.90
10986;DHT22;5546;48.714;8.738;2022-09-30T02:20:03;12.40;97.90
10986;DHT22;5546;48.714;8.738;2022-09-30T02:22:37;12.70;97.40
10986;DHT22;5546;48.714;8.738;2022-09-30T02:25:11;12.60;97.30
10986;DHT22;5546;48.714;8.738;2022-09-30T02:27:44;12.30;97.70
10986;DHT22;5546;48.714;8.738;2022-09-30T02:30:13;12.40;97.20
10986;DHT22;5546;48.714;8.738;2022-09-30T02:32:56;12.40;97.40
10986;DHT22;5546;48.714;8.738;2022-09-30T02:35:26;12.00;98.50
10986;DHT22;5546;48.714;8.738;2022-09-30T02:37:57;12.40;97.90
10986;DHT22;5546;48.714;8.738;2022-09-30T02:40:30;12.40;98.20
10986;DHT22;5546;48.714;8.738;2022-09-30T02:43:00;12.70;97.30
10986;DHT22;5546;48.714;8.738;2022-09-30T02:45:28;12.60;97.50
10986;DHT22;5546;48.714;8.738;2022-09-30T02:50:51;12.20;97.90
10986;DHT22;5546;48.714;8.738;2022-09-30T02:53:33;12.30;98.30
10986;DHT22;5546;48.714;8.738;2022-09-30T02:56:13;12.20;97.50
10986;DHT22;5546;48.714;8.738;2022-09-30T02:58:42;12.20;97.90
10986;DHT22;5546;48.714;8.738;2022-09-30T03:01:11;12.50;97.80
10986;DHT22;5546;48.714;8.738;2022-09-30T03:03:56;12.50;98.00
10986;DHT22;5546;48.714;8.738;2022-09-30T03:06:22;12.60;97.40
10986;DHT22;5546;48.714;8.738;2022-09-30T03:08:50;12.70;97.40
10986;DHT22;5546;48.714;8.738;2022-09-30T03:11:19;12.80;97.10
10986;DHT22;5546;48.714;8.738;2022-09-30T03:17:12;12.70;97.60
10986;DHT22;5546;48.714;8.738;2022-09-30T03:26:13;12.70;97.70
10986;DHT22;5546;48.714;8.738;2022-09-30T03:29:08;12.70;97.00
10986;DHT22;5546;48.714;8.738;2022-09-30T03:34:16;12.80;96.70
10986;DHT22;5546;48.714;8.738;2022-09-30T03:42:09;12.70;97.10
10986;DHT22;5546;48.714;8.738;2022-09-30T03:44:46;12.40;97.50
10986;DHT22;5546;48.714;8.738;2022-09-30T03:47:16;12.50;97.80
10986;DHT22;5546;48.714;8.738;2022-09-30T03:49:50;12.60;97.60
10986;DHT22;5546;48.714;8.738;2022-09-30T03:52:16;12.80;97.60
10986;DHT22;5546;48.714;8.738;2022-09-30T03:54:55;12.90;97.20
10986;DHT22;5546;48.714;8.738;2022-09-30T03:57:24;13.00;96.70
10986;DHT22;5546;48.714;8.738;2022-09-30T03:59:50;12.90;97.00
10986;DHT22;5546;48.714;8.738;2022-09-30T04:02:16;12.50;97.10
10986;DHT22;5546;48.714;8.738;2022-09-30T04:04:41;12.40;97.60
10986;DHT22;5546;48.714;8.738;2022-09-30T04:07:08;12.50;97.80
10986;DHT22;5546;48.714;8.738;2022-09-30T04:09:35;12.80;97.50
10986;DHT22;5546;48.714;8.738;2022-09-30T04:12:01;12.50;97.30
10986;DHT22;5546;48.714;8.738;2022-09-30T04:14:27;12.50;97.60
10986;DHT22;5546;48.714;8.738;2022-09-30T04:16:52;12.50;97.60
10986;DHT22;5546;48.714;8.738;2022-09-30T04:19:17;12.80;97.40
10986;DHT22;5546;48.714;8.738;2022-09-30T04:21:43;12.80;97.20
10986;DHT22;5546;48.714;8.738;2022-09-30T04:24:08;12.80;97.30
10986;DHT22;5546;48.714;8.738;2022-09-30T04:26:34;12.60;97.20
10986;DHT22;5546;48.714;8.738;2022-09-30T04:28:59;12.70;97.50
10986;DHT22;5546;48.714;8.738;2022-09-30T04:31:25;12.70;97.50
10986;DHT22;5546;48.714;8.738;2022-09-30T04:33:51;12.90;97.20
10986;DHT22;5546;48.714;8.738;2022-09-30T04:36:16;12.80;97.30
10986;DHT22;5546;48.714;8.738;2022-09-30T04:38:42;12.90;97.20
10986;DHT22;5546;48.714;8.738;2022-09-30T04:41:12;12.80;97.20
10986;DHT22;5546;48.714;8.738;2022-09-30T04:43:41;12.80;97.20
10986;DHT22;5546;48.714;8.738;2022-09-30T04:46:12;12.70;96.90
10986;DHT22;5546;48.714;8.738;2022-09-30T04:48:37;12.50;97.60
10986;DHT22;5546;48.714;8.738;2022-09-30T04:51:03;12.50;97.90
10986;DHT22;5546;48.714;8.738;2022-09-30T04:53:28;12.50;97.70
10986;DHT22;5546;48.714;8.738;2022-09-30T04:55:58;12.50;98.00
10986;DHT22;5546;48.714;8.738;2022-09-30T04:58:24;12.40;97.50
10986;DHT22;5546;48.714;8.738;2022-09-30T05:00:50;12.00;98.40
10986;DHT22;5546;48.714;8.738;2022-09-30T05:03:16;12.40;98.00
10986;DHT22;5546;48.714;8.738;2022-09-30T05:05:43;12.40;98.20
10986;DHT22;5546;48.714;8.738;2022-09-30T05:08:09;12.60;97.50
10986;DHT22;5546;48.714;8.738;2022-09-30T05:10:34;12.80;97.30
10986;DHT22;5546;48.714;8.738;2022-09-30T05:13:00;12.90;97.20
10986;DHT22;5546;48.714;8.738;2022-09-30T05:15:26;12.90;97.00
10986;DHT22;5546;48.714;8.738;2022-09-30T05:17:52;12.90;96.90
10986;DHT22;5546;48.714;8.738;2022-09-30T05:20:18;12.90;97.10
10986;DHT22;5546;48.714;8.738;2022-09-30T05:22:44;13.00;97.00
10986;DHT22;5546;48.714;8.738;2022-09-30T05:25:09;13.10;96.90
10986;DHT22;5546;48.714;8.738;2022-09-30T05:27:35;13.10;96.80
10986;DHT22;5546;48.714;8.738;2022-09-30T05:30:01;12.60;97.40
10986;DHT22;5546;48.714;8.738;2022-09-30T05:32:27;12.90;97.30
10986;DHT22;5546;48.714;8.738;2022-09-30T05:34:52;12.60;97.30
10986;DHT22;5546;48.714;8.738;2022-09-30T05:37:20;13.00;97.10
10986;DHT22;5546;48.714;8.738;2022-09-30T05:39:46;13.00;97.40
10986;DHT22;5546;48.714;8.738;2022-09-30T05:42:11;13.00;96.80
10986;DHT22;5546;48.714;8.738;2022-09-30T05:44:37;12.90;96.90
10986;DHT22;5546;48.714;8.738;2022-09-30T05:47:02;12.60;97.40
10986;DHT22;5546;48.714;8.738;2022-09-30T05:49:29;12.60;97.70
10986;DHT22;5546;48.714;8.738;2022-09-30T05:51:54;12.50;97.90
10986;DHT22;5546;48.714;8.738;2022-09-30T05:54:20;12.50;98.20
10986;DHT22;5546;48.714;8.738;2022-09-30T05:56:46;12.80;97.80
10986;DHT22;5546;48.714;8.738;2022-09-30T05:59:11;13.20;96.90
10986;DHT22;5546;48.714;8.738;2022-09-30T06:01:37;13.20;97.10
10986;DHT22;5546;48.714;8.738;2022-09-30T06:04:03;12.80;97.30
10986;DHT22;5546;48.714;8.738;2022-09-30T06:06:28;13.20;96.90
10986;DHT22;5546;48.714;8.738;2022-09-30T06:08:55;13.30;96.70
10986;DHT22;5546;48.714;8.738;2022-09-30T06:11:21;13.30;96.90
10986;DHT22;5546;48.714;8.738;2022-09-30T06:13:49;13.30;96.70
10986;DHT22;5546;48.714;8.738;2022-09-30T06:16:16;13.30;97.00
10986;DHT22;5546;48.714;8.738;2022-09-30T06:18:42;13.10;97.10
10986;DHT22;5546;48.714;8.738;2022-09-30T06:21:10;12.70;97.80
10986;DHT22;5546;48.714;8.738;2022-09-30T06:23:36;13.00;97.20
10986;DHT22;5546;48.714;8.738;2022-09-30T06:26:04;13.30;96.80
10986;DHT22;5546;48.714;8.738;2022-09-30T06:28:30;13.30;97.10
10986;DHT22;5546;48.714;8.738;2022-09-30T06:31:00;13.60;96.50
10986;DHT22;5546;48.714;8.738;2022-09-30T06:33:26;13.60;96.80
10986;DHT22;5546;48.714;8.738;2022-09-30T06:35:52;13.90;96.10
10986;DHT22;5546;48.714;8.738;2022-09-30T06:38:18;14.00;95.70
10986;DHT22;5546;48.714;8.738;2022-09-30T06:40:45;14.10;95.00
10986;DHT22;5546;48.714;8.738;2022-09-30T06:43:15;14.00;95.30
10986;DHT22;5546;48.714;8.738;2022-09-30T06:45:41;13.90;95.90
10986;DHT22;5546;48.714;8.738;2022-09-30T06:48:09;13.90;96.10
10986;DHT22;5546;48.714;8.738;2022-09-30T06:50:34;13.80;95.40
10986;DHT22;5546;48.714;8.738;2022-09-30T06:53:02;13.80;95.90
10986;DHT22;5546;48.714;8.738;2022-09-30T06:55:30;13.80;96.20
10986;DHT22;5546;48.714;8.738;2022-09-30T06:57:56;14.00;95.90
10986;DHT22;5546;48.714;8.738;2022-09-30T07:00:23;14.20;95.70
10986;DHT22;5546;48.714;8.738;2022-09-30T07:02:49;14.40;95.40
10986;DHT22;5546;48.714;8.738;2022-09-30T07:05:15;14.50;94.80
10986;DHT22;5546;48.714;8.738;2022-09-30T07:07:41;14.50;95.10
10986;DHT22;5546;48.714;8.738;2022-09-30T07:10:09;14.50;95.40
10986;DHT22;5546;48.714;8.738;2022-09-30T07:12:34;14.60;94.50
10986;DHT22;5546;48.714;8.738;2022-09-30T07:15:00;14.70;94.80
10986;DHT22;5546;48.714;8.738;2022-09-30T07:17:27;14.40;95.00
10986;DHT22;5546;48.714;8.738;2022-09-30T07:19:52;14.50;94.40
10986;DHT22;5546;48.714;8.738;2022-09-30T07:22:18;14.40;94.70
10986;DHT22;5546;48.714;8.738;2022-09-30T07:24:59;14.30;94.80
10986;DHT22;5546;48.714;8.738;2022-09-30T07:27:30;14.50;95.10
10986;DHT22;5546;48.714;8.738;2022-09-30T07:29:57;14.30;95.10
10986;DHT22;5546;48.714;8.738;2022-09-30T07:32:23;14.40;95.40
10986;DHT22;5546;48.714;8.738;2022-09-30T07:34:49;14.60;94.80
10986;DHT22;5546;48.714;8.738;2022-09-30T07:37:16;14.70;95.00
10986;DHT22;5546;48.714;8.738;2022-09-30T07:39:44;14.90;94.60
10986;DHT22;5546;48.714;8.738;2022-09-30T07:42:11;14.70;94.40
10986;DHT22;5546;48.714;8.738;2022-09-30T07:44:38;14.70;94.70
10986;DHT22;5546;48.714;8.738;2022-09-30T07:47:06;14.80;94.50
10986;DHT22;5546;48.714;8.738;2022-09-30T07:49:32;14.80;94.50
10986;DHT22;5546;48.714;8.738;2022-09-30T07:51:58;14.80;94.70
10986;DHT22;5546;48.714;8.738;2022-09-30T07:54:27;15.10;94.30
10986;DHT22;5546;48.714;8.738;2022-09-30T07:56:53;15.10;93.90
10986;DHT22;5546;48.714;8.738;2022-09-30T07:59:19;14.60;94.80
10986;DHT22;5546;48.714;8.738;2022-09-30T08:01:46;14.70;94.40
10986;DHT22;5546;48.714;8.738;2022-09-30T08:04:14;14.60;94.80
10986;DHT22;5546;48.714;8.738;2022-09-30T08:06:42;15.20;93.90
10986;DHT22;5546;48.714;8.738;2022-09-30T08:09:09;15.20;94.10
10986;DHT22;5546;48.714;8.738;2022-09-30T08:11:37;15.40;93.70
10986;DHT22;5546;48.714;8.738;2022-09-30T08:14:03;15.60;93.00
10986;DHT22;5546;48.714;8.738;2022-09-30T08:16:29;15.60;93.30
10986;DHT22;5546;48.714;8.738;2022-09-30T08:18:57;15.40;93.40
10986;DHT22;5546;48.714;8.738;2022-09-30T08:21:23;15.70;93.00
10986;DHT22;5546;48.714;8.738;2022-09-30T08:23:49;15.80;92.90
10986;DHT22;5546;48.714;8.738;2022-09-30T08:26:15;15.90;92.60
10986;DHT22;5546;48.714;8.738;2022-09-30T08:28:41;15.90;92.90
10986;DHT22;5546;48.714;8.738;2022-09-30T08:31:15;16.10;92.50
10986;DHT22;5546;48.714;8.738;2022-09-30T08:33:41;16.30;92.30
10986;DHT22;5546;48.714;8.738;2022-09-30T08:36:26;16.30;92.50
10986;DHT22;5546;48.714;8.738;2022-09-30T08:38:53;15.70;92.70
10986;DHT22;5546;48.714;8.738;2022-09-30T08:46:55;17.00;91.20
10986;DHT22;5546;48.714;8.738;2022-09-30T08:52:21;17.50;90.70
10986;DHT22;5546;48.714;8.738;2022-09-30T08:54:51;18.40;89.30
10986;DHT22;5546;48.714;8.738;2022-09-30T08:57:18;18.40;89.80
10986;DHT22;5546;48.714;8.738;2022-09-30T08:59:59;19.00;86.60
10986;DHT22;5546;48.714;8.738;2022-09-30T09:02:52;19.20;87.00
10986;DHT22;5546;48.714;8.738;2022-09-30T09:08:12;19.60;83.70
10986;DHT22;5546;48.714;8.738;2022-09-30T09:10:45;18.50;84.90
10986;DHT22;5546;48.714;8.738;2022-09-30T09:13:18;18.50;85.50
10986;DHT22;5546;48.714;8.738;2022-09-30T09:16:02;18.50;85.00
10986;DHT22;5546;48.714;8.738;2022-09-30T09:18:57;18.50;85.90
10986;DHT22;5546;48.714;8.738;2022-09-30T09:24:16;18.50;85.40
10986;DHT22;5546;48.714;8.738;2022-09-30T09:26:43;18.80;84.10
10986;DHT22;5546;48.714;8.738;2022-09-30T09:32:00;18.40;85.50
10986;DHT22;5546;48.714;8.738;2022-09-30T09:34:28;18.50;85.00
10986;DHT22;5546;48.714;8.738;2022-09-30T09:42:41;21.00;79.30
10986;DHT22;5546;48.714;8.738;2022-09-30T09:45:34;23.40;71.30
10986;DHT22;5546;48.714;8.738;2022-09-30T09:48:00;24.60;68.20
10986;DHT22;5546;48.714;8.738;2022-09-30T09:53:33;27.60;58.90
10986;DHT22;5546;48.714;8.738;2022-09-30T09:56:12;28.00;57.40
10986;DHT22;5546;48.714;8.738;2022-09-30T09:59:12;30.30;53.00
10986;DHT22;5546;48.714;8.738;2022-09-30T10:01:43;31.40;49.50
10986;DHT22;5546;48.714;8.738;2022-09-30T10:04:13;32.50;47.90
10986;DHT22;5546;48.714;8.738;2022-09-30T10:06:54;33.10;46.10
10986;DHT22;5546;48.714;8.738;2022-09-30T10:09:34;33.00;44.50
10986;DHT22;5546;48.714;8.738;2022-09-30T10:14:35;30.50;47.60
10986;DHT22;5546;48.714;8.738;2022-09-30T10:17:21;30.80;45.40
10986;DHT22;5546;48.714;8.738;2022-09-30T10:19:58;31.80;46.40
10986;DHT22;5546;48.714;8.738;2022-09-30T10:22:28;33.10;42.60
10986;DHT22;5546;48.714;8.738;2022-09-30T10:30:11;31.70;42.40
10986;DHT22;5546;48.714;8.738;2022-09-30T10:32:37;31.70;43.00
10986;DHT22;5546;48.714;8.738;2022-09-30T10:35:06;31.60;41.90
10986;DHT22;5546;48.714;8.738;2022-09-30T10:37:39;29.70;44.20
10986;DHT22;5546;48.714;8.738;2022-09-30T10:40:17;27.00;45.50
10986;DHT22;5546;48.714;8.738;2022-09-30T10:42:45;25.70;48.10
10986;DHT22;5546;48.714;8.738;2022-09-30T10:45:33;24.40;53.40
10986;DHT22;5546;48.714;8.738;2022-09-30T10:48:05;23.20;51.60
10986;DHT22;5546;48.714;8.738;2022-09-30T10:50:31;22.60;58.00
10986;DHT22;5546;48.714;8.738;2022-09-30T10:53:14;21.90;61.80
10986;DHT22;5546;48.714;8.738;2022-09-30T10:55:43;21.90;59.80
10986;DHT22;5546;48.714;8.738;2022-09-30T11:00:59;21.50;60.50
10986;DHT22;5546;48.714;8.738;2022-09-30T11:06:13;21.00;68.00
10986;DHT22;5546;48.714;8.738;2022-09-30T11:11:45;21.20;68.40
10986;DHT22;5546;48.714;8.738;2022-09-30T11:14:37;20.70;71.50
10986;DHT22;5546;48.714;8.738;2022-09-30T11:20:02;20.40;71.30
10986;DHT22;5546;48.714;8.738;2022-09-30T11:25:15;19.90;72.80
10986;DHT22;5546;48.714;8.738;2022-09-30T11:31:17;20.10;69.20
10986;DHT22;5546;48.714;8.738;2022-09-30T11:34:18;20.40;74.90
10986;DHT22;5546;48.714;8.738;2022-09-30T11:37:04;20.00;73.80
10986;DHT22;5546;48.714;8.738;2022-09-30T11:42:44;20.50;73.20
10986;DHT22;5546;48.714;8.738;2022-09-30T11:45:32;21.10;68.70
10986;DHT22;5546;48.714;8.738;2022-09-30T11:48:32;21.40;65.30
10986;DHT22;5546;48.714;8.738;2022-09-30T11:56:25;21.40;65.30
10986;DHT22;5546;48.714;8.738;2022-09-30T11:58:55;21.70;65.80
10986;DHT22;5546;48.714;8.738;2022-09-30T12:01:33;22.00;62.60
10986;DHT22;5546;48.714;8.738;2022-09-30T12:06:53;22.30;59.20
10986;DHT22;5546;48.714;8.738;2022-09-30T12:09:31;22.90;58.10
10986;DHT22;5546;48.714;8.738;2022-09-30T12:12:04;23.10;56.70
10986;DHT22;5546;48.714;8.738;2022-09-30T12:14:45;22.60;56.30
10986;DHT22;5546;48.714;8.738;2022-09-30T12:17:41;22.20;58.10
10986;DHT22;5546;48.714;8.738;2022-09-30T12:20:19;22.70;57.90
10986;DHT22;5546;48.714;8.738;2022-09-30T12:22:57;22.90;61.00
10986;DHT22;5546;48.714;8.738;2022-09-30T12:25:31;23.00;59.80
10986;DHT22;5546;48.714;8.738;2022-09-30T12:28:32;23.30;56.80
10986;DHT22;5546;48.714;8.738;2022-09-30T12:34:14;25.10;52.60
10986;DHT22;5546;48.714;8.738;2022-09-30T12:47:51;25.60;50.00
10986;DHT22;5546;48.714;8.738;2022-09-30T12:50:20;25.70;50.90
10986;DHT22;5546;48.714;8.738;2022-09-30T12:52:46;25.90;50.10
10986;DHT22;5546;48.714;8.738;2022-09-30T12:57:51;23.80;53.20
10986;DHT22;5546;48.714;8.738;2022-09-30T13:00:20;23.20;54.70
10986;DHT22;5546;48.714;8.738;2022-09-30T13:10:35;20.40;59.60
10986;DHT22;5546;48.714;8.738;2022-09-30T13:13:27;20.40;60.10
10986;DHT22;5546;48.714;8.738;2022-09-30T13:15:57;19.80;63.70
10986;DHT22;5546;48.714;8.738;2022-09-30T13:21:16;20.00;64.50
10986;DHT22;5546;48.714;8.738;2022-09-30T13:23:49;20.00;62.70
10986;DHT22;5546;48.714;8.738;2022-09-30T13:31:30;20.30;61.20
10986;DHT22;5546;48.714;8.738;2022-09-30T13:36:39;20.00;60.80
10986;DHT22;5546;48.714;8.738;2022-09-30T13:39:28;20.40;59.50
10986;DHT22;5546;48.714;8.738;2022-09-30T13:42:03;20.30;59.30
10986;DHT22;5546;48.714;8.738;2022-09-30T13:47:17;20.50;59.00
10986;DHT22;5546;48.714;8.738;2022-09-30T13:49:53;20.50;58.50
10986;DHT22;5546;48.714;8.738;2022-09-30T13:52:24;21.00;57.50
10986;DHT22;5546;48.714;8.738;2022-09-30T13:54:55;21.10;56.30
10986;DHT22;5546;48.714;8.738;2022-09-30T13:57:43;20.50;65.30
10986;DHT22;5546;48.714;8.738;2022-09-30T14:00:15;20.40;69.90
10986;DHT22;5546;48.714;8.738;2022-09-30T14:06:00;20.90;62.60
10986;DHT22;5546;48.714;8.738;2022-09-30T14:08:33;20.60;66.80
10986;DHT22;5546;48.714;8.738;2022-09-30T14:22:08;20.70;69.00
10986;DHT22;5546;48.714;8.738;2022-09-30T14:24:36;20.40;68.80
10986;DHT22;5546;48.714;8.738;2022-09-30T14:27:29;20.80;66.80
10986;DHT22;5546;48.714;8.738;2022-09-30T14:32:46;20.70;71.50
10986;DHT22;5546;48.714;8.738;2022-09-30T14:35:20;20.90;69.50
10986;DHT22;5546;48.714;8.738;2022-09-30T14:37:49;21.20;68.60
10986;DHT22;5546;48.714;8.738;2022-09-30T14:40:36;21.30;64.80
10986;DHT22;5546;48.714;8.738;2022-09-30T14:43:13;20.90;69.80
10986;DHT22;5546;48.714;8.738;2022-09-30T14:45:42;20.40;70.40
10986;DHT22;5546;48.714;8.738;2022-09-30T14:48:26;20.50;70.20
10986;DHT22;5546;48.714;8.738;2022-09-30T14:51:03;19.90;74.80
10986;DHT22;5546;48.714;8.738;2022-09-30T14:53:39;20.00;72.20
10986;DHT22;5546;48.714;8.738;2022-09-30T14:56:32;19.70;75.00
10986;DHT22;5546;48.714;8.738;2022-09-30T14:59:00;19.60;78.10
10986;DHT22;5546;48.714;8.738;2022-09-30T15:01:37;19.50;76.50
10986;DHT22;5546;48.714;8.738;2022-09-30T15:04:14;19.60;77.60
10986;DHT22;5546;48.714;8.738;2022-09-30T15:06:49;19.10;81.20
10986;DHT22;5546;48.714;8.738;2022-09-30T15:12:04;19.20;80.20
10986;DHT22;5546;48.714;8.738;2022-09-30T15:14:30;19.30;79.40
10986;DHT22;5546;48.714;8.738;2022-09-30T15:16:57;18.90;80.70
10986;DHT22;5546;48.714;8.738;2022-09-30T15:19:26;18.90;81.30
10986;DHT22;5546;48.714;8.738;2022-09-30T15:21:54;18.20;80.40
10986;DHT22;5546;48.714;8.738;2022-09-30T15:24:21;18.00;82.40
10986;DHT22;5546;48.714;8.738;2022-09-30T15:26:48;17.60;84.40
10986;DHT22;5546;48.714;8.738;2022-09-30T15:29:16;17.60;85.10
10986;DHT22;5546;48.714;8.738;2022-09-30T15:31:48;17.50;84.30
10986;DHT22;5546;48.714;8.738;2022-09-30T15:34:17;17.30;85.00
10986;DHT22;5546;48.714;8.738;2022-09-30T15:36:45;17.30;85.50
10986;DHT22;5546;48.714;8.738;2022-09-30T15:39:21;17.10;84.70
10986;DHT22;5546;48.714;8.738;2022-09-30T15:41:48;17.10;85.40
10986;DHT22;5546;48.714;8.738;2022-09-30T15:44:16;16.60;86.30
10986;DHT22;5546;48.714;8.738;2022-09-30T15:47:00;16.70;86.50
10986;DHT22;5546;48.714;8.738;2022-09-30T15:49:45;16.70;87.20
10986;DHT22;5546;48.714;8.738;2022-09-30T15:52:35;16.70;86.30
10986;DHT22;5546;48.714;8.738;2022-09-30T15:55:42;16.40;88.50
10986;DHT22;5546;48.714;8.738;2022-09-30T15:58:36;16.50;88.60
10986;DHT22;5546;48.714;8.738;2022-09-30T16:01:23;16.00;89.30
10986;DHT22;5546;48.714;8.738;2022-09-30T16:06:30;15.30;90.90
10986;DHT22;5546;48.714;8.738;2022-09-30T16:09:05;15.00;91.80
10986;DHT22;5546;48.714;8.738;2022-09-30T16:11:40;14.90;92.50
10986;DHT22;5546;48.714;8.738;2022-09-30T16:14:15;14.90;92.90
10986;DHT22;5546;48.714;8.738;2022-09-30T16:16:48;14.90;93.40
10986;DHT22;5546;48.714;8.738;2022-09-30T16:19:17;15.10;93.60
10986;DHT22;5546;48.714;8.738;2022-09-30T16:21:47;15.20;93.70
10986;DHT22;5546;48.714;8.738;2022-09-30T16:26:54;15.30;93.60
10986;DHT22;5546;48.714;8.738;2022-09-30T16:29:21;15.20;93.90
10986;DHT22;5546;48.714;8.738;2022-09-30T16:31:49;15.30;93.80
10986;DHT22;5546;48.714;8.738;2022-09-30T16:34:23;15.10;94.50
10986;DHT22;5546;48.714;8.738;2022-09-30T16:36:49;14.70;94.90
10986;DHT22;5546;48.714;8.738;2022-09-30T16:39:15;14.60;95.30
10986;DHT22;5546;48.714;8.738;2022-09-30T16:41:42;14.40;95.80
10986;DHT22;5546;48.714;8.738;2022-09-30T16:44:08;14.80;95.10
10986;DHT22;5546;48.714;8.738;2022-09-30T16:46:34;15.20;94.40
10986;DHT22;5546;48.714;8.738;2022-09-30T16:49:14;15.50;94.30
10986;DHT22;5546;48.714;8.738;2022-09-30T16:51:39;15.60;94.30
10986;DHT22;5546;48.714;8.738;2022-09-30T16:54:05;15.50;94.20
10986;DHT22;5546;48.714;8.738;2022-09-30T16:56:30;15.50;94.40
10986;DHT22;5546;48.714;8.738;2022-09-30T16:58:56;15.50;94.10
10986;DHT22;5546;48.714;8.738;2022-09-30T17:01:23;15.30;94.50
10986;DHT22;5546;48.714;8.738;2022-09-30T17:03:50;14.70;94.80
10986;DHT22;5546;48.714;8.738;2022-09-30T17:06:18;14.60;95.00
10986;DHT22;5546;48.714;8.738;2022-09-30T17:08:47;14.70;94.80
10986;DHT22;5546;48.714;8.738;2022-09-30T17:11:13;14.70;95.40
10986;DHT22;5546;48.714;8.738;2022-09-30T17:13:39;14.70;94.90
10986;DHT22;5546;48.714;8.738;2022-09-30T17:16:05;14.70;95.10
10986;DHT22;5546;48.714;8.738;2022-09-30T17:18:31;14.70;94.80
10986;DHT22;5546;48.714;8.738;2022-09-30T17:20:57;14.70;95.10
10986;DHT22;5546;48.714;8.738;2022-09-30T17:23:24;14.70;95.00
10986;DHT22;5546;48.714;8.738;2022-09-30T17:25:50;14.50;95.40
10986;DHT22;5546;48.714;8.738;2022-09-30T17:28:16;14.40;95.30
10986;DHT22;5546;48.714;8.738;2022-09-30T17:30:45;14.00;95.80
10986;DHT22;5546;48.714;8.738;2022-09-30T17:33:13;13.80;96.30
10986;DHT22;5546;48.714;8.738;2022-09-30T17:35:39;13.60;97.00
10986;DHT22;5546;48.714;8.738;2022-09-30T17:38:11;14.10;96.20
10986;DHT22;5546;48.714;8.738;2022-09-30T17:40:37;14.10;95.70
10986;DHT22;5546;48.714;8.738;2022-09-30T17:43:22;14.00;95.90
10986;DHT22;5546;48.714;8.738;2022-09-30T17:45:47;13.80;95.60
10986;DHT22;5546;48.714;8.738;2022-09-30T17:48:15;13.90;95.80
10986;DHT22;5546;48.714;8.738;2022-09-30T17:50:44;13.80;95.80
10986;DHT22;5546;48.714;8.738;2022-09-30T17:53:11;13.70;95.80
10986;DHT22;5546;48.714;8.738;2022-09-30T17:55:42;13.60;96.10
10986;DHT22;5546;48.714;8.738;2022-09-30T17:58:08;13.50;96.20
10986;DHT22;5546;48.714;8.738;2022-09-30T18:00:36;13.50;96.50
10986;DHT22;5546;48.714;8.738;2022-09-30T18:03:02;13.50;96.30
10986;DHT22;5546;48.714;8.738;2022-09-30T18:05:29;13.50;96.50
10986;DHT22;5546;48.714;8.738;2022-09-30T18:07:54;13.60;96.20
10986;DHT22;5546;48.714;8.738;2022-09-30T18:10:21;13.60;96.30
10986;DHT22;5546;48.714;8.738;2022-09-30T18:12:47;13.60;96.30
10986;DHT22;5546;48.714;8.738;2022-09-30T18:15:14;13.70;95.80
10986;DHT22;5546;48.714;8.738;2022-09-30T18:17:40;13.60;96.00
10986;DHT22;5546;48.714;8.738;2022-09-30T18:20:06;13.40;96.40
10986;DHT22;5546;48.714;8.738;2022-09-30T18:22:32;13.30;96.50
10986;DHT22;5546;48.714;8.738;2022-09-30T18:24:57;13.10;97.00
10986;DHT22;5546;48.714;8.738;2022-09-30T18:27:41;13.00;96.70
10986;DHT22;5546;48.714;8.738;2022-09-30T18:32:34;13.10;96.20
10986;DHT22;5546;48.714;8.738;2022-09-30T18:34:59;13.00;96.50
10986;DHT22;5546;48.714;8.738;2022-09-30T18:37:27;13.10;96.60
10986;DHT22;5546;48.714;8.738;2022-09-30T18:39:53;13.10;96.80
10986;DHT22;5546;48.714;8.738;2022-09-30T18:42:18;12.90;96.20
10986;DHT22;5546;48.714;8.738;2022-09-30T18:44:47;13.10;96.30
10986;DHT22;5546;48.714;8.738;2022-09-30T18:47:15;13.10;96.50
10986;DHT22;5546;48.714;8.738;2022-09-30T18:49:41;13.10;96.50
10986;DHT22;5546;48.714;8.738;2022-09-30T18:52:07;13.00;96.40
10986;DHT22;5546;48.714;8.738;2022-09-30T18:54:32;12.90;96.30
10986;DHT22;5546;48.714;8.738;2022-09-30T18:56:58;13.00;96.00
10986;DHT22;5546;48.714;8.738;2022-09-30T18:59:27;12.90;96.10
10986;DHT22;5546;48.714;8.738;2022-09-30T19:01:56;12.90;96.30
10986;DHT22;5546;48.714;8.738;2022-09-30T19:04:23;12.80;96.50